sensor_id;sensor_type;location;lat;lon;timestamp;pressure;altitude;pressure_sealevel;temperature;humidity
34235;BME280;20500;49.856;20.290;2022-11-12T00:00:15;100427.42;;;3.32;77.57
34235;BME280;20500;49.856;20.290;2022-11-12T00:03:24;100435.66;;;3.33;77.66
34235;BME280;20500;49.856;20.290;2022-11-12T00:06:31;100430.70;;;3.32;77.48
34235;BME280;20500;49.856;20.290;2022-11-12T00:09:35;100420.95;;;3.24;77.44
34235;BME280;20500;49.856;20.290;2022-11-12T00:12:42;100427.07;;;3.22;77.72
34235;BME280;20500;49.856;20.290;2022-11-12T00:15:46;100433.84;;;3.19;77.59
34235;BME280;20500;49.856;20.290;2022-11-12T00:18:53;100436.13;;;3.18;77.58
34235;BME280;20500;49.856;20.290;2022-11-12T00:21:57;100433.41;;;3.15;77.55
34235;BME280;20500;49.856;20.290;2022-11-12T00:25:05;100436.81;;;3.10;77.55
34235;BME280;20500;49.856;20.290;2022-11-12T00:28:12;100438.80;;;3.07;77.70
34235;BME280;20500;49.856;20.290;2022-11-12T00:31:18;100441.27;;;3.05;77.66
34235;BME280;20500;49.856;20.290;2022-11-12T00:34:23;100439.73;;;3.06;77.64
34235;BME280;20500;49.856;20.290;2022-11-12T00:37:29;100443.60;;;3.05;77.60
34235;BME280;20500;49.856;20.290;2022-11-12T00:40:34;100444.52;;;3.02;77.49
34235;BME280;20500;49.856;20.290;2022-11-12T00:43:40;100452.92;;;2.96;77.44
34235;BME280;20500;49.856;20.290;2022-11-12T00:46:46;100455.54;;;2.89;77.32
34235;BME280;20500;49.856;20.290;2022-11-12T00:49:53;100454.70;;;2.83;77.39
34235;BME280;20500;49.856;20.290;2022-11-12T00:52:58;100450.09;;;2.76;77.36
34235;BME280;20500;49.856;20.290;2022-11-12T00:56:06;100447.18;;;2.72;77.33
34235;BME280;20500;49.856;20.290;2022-11-12T00:59:13;100450.50;;;2.67;77.62
34235;BME280;20500;49.856;20.290;2022-11-12T01:02:19;100446.93;;;2.67;77.58
34235;BME280;20500;49.856;20.290;2022-11-12T01:05:24;100444.10;;;2.64;77.64
34235;BME280;20500;49.856;20.290;2022-11-12T01:08:31;100446.42;;;2.61;77.48
34235;BME280;20500;49.856;20.290;2022-11-12T01:11:39;100445.90;;;2.55;77.42
34235;BME280;20500;49.856;20.290;2022-11-12T01:14:45;100446.98;;;2.52;77.89
34235;BME280;20500;49.856;20.290;2022-11-12T01:17:52;100443.75;;;2.55;77.83
34235;BME280;20500;49.856;20.290;2022-11-12T01:20:57;100445.49;;;2.56;77.81
34235;BME280;20500;49.856;20.290;2022-11-12T01:24:05;100445.80;;;2.51;77.41
34235;BME280;20500;49.856;20.290;2022-11-12T01:27:12;100445.13;;;2.45;77.47
34235;BME280;20500;49.856;20.290;2022-11-12T01:30:17;100444.59;;;2.39;77.47
34235;BME280;20500;49.856;20.290;2022-11-12T01:33:23;100453.23;;;2.35;77.57
34235;BME280;20500;49.856;20.290;2022-11-12T01:36:32;100451.06;;;2.33;77.64
34235;BME280;20500;49.856;20.290;2022-11-12T01:39:39;100458.14;;;2.31;77.71
34235;BME280;20500;49.856;20.290;2022-11-12T01:42:44;100459.20;;;2.29;77.65
34235;BME280;20500;49.856;20.290;2022-11-12T01:45:56;100457.52;;;2.27;77.62
34235;BME280;20500;49.856;20.290;2022-11-12T01:49:07;100459.20;;;2.26;77.72
34235;BME280;20500;49.856;20.290;2022-11-12T01:52:18;100454.98;;;2.25;77.72
34235;BME280;20500;49.856;20.290;2022-11-12T01:55:29;100451.36;;;2.19;77.57
34235;BME280;20500;49.856;20.290;2022-11-12T01:58:38;100453.80;;;2.15;77.58
34235;BME280;20500;49.856;20.290;2022-11-12T02:01:45;100455.10;;;2.11;77.78
34235;BME280;20500;49.856;20.290;2022-11-12T02:04:49;100456.14;;;2.09;77.94
34235;BME280;20500;49.856;20.290;2022-11-12T02:07:57;100450.54;;;2.07;77.85
34235;BME280;20500;49.856;20.290;2022-11-12T02:11:14;100452.02;;;2.06;77.82
34235;BME280;20500;49.856;20.290;2022-11-12T02:14:21;100449.58;;;2.05;77.79
34235;BME280;20500;49.856;20.290;2022-11-12T02:17:28;100450.98;;;2.05;77.87
34235;BME280;20500;49.856;20.290;2022-11-12T02:20:36;100450.23;;;2.06;78.02
34235;BME280;20500;49.856;20.290;2022-11-12T02:23:42;100445.36;;;2.10;77.98
34235;BME280;20500;49.856;20.290;2022-11-12T02:26:52;100445.31;;;2.10;77.94
34235;BME280;20500;49.856;20.290;2022-11-12T02:29:59;100445.56;;;2.12;78.07
34235;BME280;20500;49.856;20.290;2022-11-12T02:33:03;100443.48;;;2.14;78.10
34235;BME280;20500;49.856;20.290;2022-11-12T02:36:10;100448.47;;;2.14;77.91
34235;BME280;20500;49.856;20.290;2022-11-12T02:39:16;100452.97;;;2.14;78.04
34235;BME280;20500;49.856;20.290;2022-11-12T02:42:23;100450.28;;;2.14;78.06
34235;BME280;20500;49.856;20.290;2022-11-12T02:45:28;100445.40;;;2.09;77.86
34235;BME280;20500;49.856;20.290;2022-11-12T02:48:38;100443.36;;;2.07;78.02
34235;BME280;20500;49.856;20.290;2022-11-12T02:51:45;100441.05;;;2.07;78.07
34235;BME280;20500;49.856;20.290;2022-11-12T02:54:49;100439.17;;;2.05;78.04
34235;BME280;20500;49.856;20.290;2022-11-12T02:57:59;100439.01;;;2.05;78.26
34235;BME280;20500;49.856;20.290;2022-11-12T03:01:05;100436.48;;;2.05;77.98
34235;BME280;20500;49.856;20.290;2022-11-12T03:04:12;100437.23;;;2.02;78.07
34235;BME280;20500;49.856;20.290;2022-11-12T03:07:16;100433.09;;;2.00;77.90
34235;BME280;20500;49.856;20.290;2022-11-12T03:10:23;100435.30;;;1.98;78.07
34235;BME280;20500;49.856;20.290;2022-11-12T03:13:29;100434.10;;;1.98;78.12
34235;BME280;20500;49.856;20.290;2022-11-12T03:16:34;100431.23;;;1.94;78.07
34235;BME280;20500;49.856;20.290;2022-11-12T03:19:40;100435.36;;;1.91;78.02
34235;BME280;20500;49.856;20.290;2022-11-12T03:22:53;100439.89;;;1.90;78.21
34235;BME280;20500;49.856;20.290;2022-11-12T03:26:00;100441.48;;;1.91;78.26
34235;BME280;20500;49.856;20.290;2022-11-12T03:29:06;100440.08;;;1.87;78.00
34235;BME280;20500;49.856;20.290;2022-11-12T03:32:11;100442.38;;;1.88;78.24
34235;BME280;20500;49.856;20.290;2022-11-12T03:35:17;100446.97;;;1.89;78.17
34235;BME280;20500;49.856;20.290;2022-11-12T03:38:24;100446.31;;;1.85;78.15
34235;BME280;20500;49.856;20.290;2022-11-12T03:41:31;100445.48;;;1.81;78.13
34235;BME280;20500;49.856;20.290;2022-11-12T03:44:35;100438.98;;;1.76;78.09
34235;BME280;20500;49.856;20.290;2022-11-12T03:47:43;100440.02;;;1.71;78.13
34235;BME280;20500;49.856;20.290;2022-11-12T03:50:50;100443.13;;;1.66;78.08
34235;BME280;20500;49.856;20.290;2022-11-12T03:53:57;100446.69;;;1.64;78.20
34235;BME280;20500;49.856;20.290;2022-11-12T03:57:01;100446.86;;;1.61;78.19
34235;BME280;20500;49.856;20.290;2022-11-12T04:00:10;100444.21;;;1.60;78.20
34235;BME280;20500;49.856;20.290;2022-11-12T04:03:17;100440.31;;;1.60;78.31
34235;BME280;20500;49.856;20.290;2022-11-12T04:06:21;100443.08;;;1.59;78.25
34235;BME280;20500;49.856;20.290;2022-11-12T04:09:45;100443.86;;;1.58;78.22
34235;BME280;20500;49.856;20.290;2022-11-12T04:12:50;100441.66;;;1.58;78.28
34235;BME280;20500;49.856;20.290;2022-11-12T04:16:17;100440.12;;;1.54;78.18
34235;BME280;20500;49.856;20.290;2022-11-12T04:19:41;100443.64;;;1.49;78.08
34235;BME280;20500;49.856;20.290;2022-11-12T04:23:04;100444.08;;;1.44;78.10
34235;BME280;20500;49.856;20.290;2022-11-12T04:26:11;100441.36;;;1.42;78.33
34235;BME280;20500;49.856;20.290;2022-11-12T04:29:29;100440.66;;;1.42;78.27
34235;BME280;20500;49.856;20.290;2022-11-12T04:32:54;100440.63;;;1.39;78.37
34235;BME280;20500;49.856;20.290;2022-11-12T04:36:00;100438.04;;;1.37;78.24
34235;BME280;20500;49.856;20.290;2022-11-12T04:39:07;100435.23;;;1.37;78.43
34235;BME280;20500;49.856;20.290;2022-11-12T04:42:13;100435.42;;;1.36;78.36
34235;BME280;20500;49.856;20.290;2022-11-12T04:45:38;100437.33;;;1.35;78.26
34235;BME280;20500;49.856;20.290;2022-11-12T04:48:45;100438.29;;;1.34;78.34
34235;BME280;20500;49.856;20.290;2022-11-12T04:51:50;100437.63;;;1.33;78.26
34235;BME280;20500;49.856;20.290;2022-11-12T04:55:12;100431.34;;;1.27;78.15
34235;BME280;20500;49.856;20.290;2022-11-12T04:58:18;100433.36;;;1.23;78.33
34235;BME280;20500;49.856;20.290;2022-11-12T05:01:25;100433.30;;;1.21;78.43
34235;BME280;20500;49.856;20.290;2022-11-12T05:04:29;100434.85;;;1.19;78.39
34235;BME280;20500;49.856;20.290;2022-11-12T05:07:35;100439.26;;;1.17;78.46
34235;BME280;20500;49.856;20.290;2022-11-12T05:10:40;100441.70;;;1.15;78.49
34235;BME280;20500;49.856;20.290;2022-11-12T05:13:46;100439.45;;;1.14;78.58
34235;BME280;20500;49.856;20.290;2022-11-12T05:16:51;100439.77;;;1.11;78.62
34235;BME280;20500;49.856;20.290;2022-11-12T05:19:57;100434.46;;;1.10;78.60
34235;BME280;20500;49.856;20.290;2022-11-12T05:23:02;100433.26;;;1.06;78.65
34235;BME280;20500;49.856;20.290;2022-11-12T05:26:11;100440.55;;;1.01;78.86
34235;BME280;20500;49.856;20.290;2022-11-12T05:29:18;100442.97;;;1.03;78.81
34235;BME280;20500;49.856;20.290;2022-11-12T05:32:24;100445.39;;;1.04;78.78
34235;BME280;20500;49.856;20.290;2022-11-12T05:35:31;100445.25;;;1.03;78.76
34235;BME280;20500;49.856;20.290;2022-11-12T05:38:36;100443.99;;;1.03;78.76
34235;BME280;20500;49.856;20.290;2022-11-12T05:41:43;100454.69;;;1.04;78.84
34235;BME280;20500;49.856;20.290;2022-11-12T05:45:10;100456.77;;;1.02;78.80
34235;BME280;20500;49.856;20.290;2022-11-12T05:48:16;100454.88;;;1.01;78.63
34235;BME280;20500;49.856;20.290;2022-11-12T05:51:28;100454.63;;;0.98;78.58
34235;BME280;20500;49.856;20.290;2022-11-12T06:07:09;100462.29;;;1.30;78.49
34235;BME280;20500;49.856;20.290;2022-11-12T06:10:16;100470.91;;;1.38;78.34
34235;BME280;20500;49.856;20.290;2022-11-12T06:13:25;100475.48;;;1.33;78.55
34235;BME280;20500;49.856;20.290;2022-11-12T06:16:32;100476.50;;;1.26;78.68
34235;BME280;20500;49.856;20.290;2022-11-12T06:19:39;100477.89;;;1.23;78.89
34235;BME280;20500;49.856;20.290;2022-11-12T06:22:43;100477.22;;;1.22;78.90
34235;BME280;20500;49.856;20.290;2022-11-12T06:25:49;100486.29;;;1.20;78.87
34235;BME280;20500;49.856;20.290;2022-11-12T06:28:56;100486.40;;;1.18;78.84
34235;BME280;20500;49.856;20.290;2022-11-12T06:32:02;100483.36;;;1.18;78.84
34235;BME280;20500;49.856;20.290;2022-11-12T06:35:07;100487.13;;;1.18;79.05
34235;BME280;20500;49.856;20.290;2022-11-12T06:38:14;100491.83;;;1.17;79.13
34235;BME280;20500;49.856;20.290;2022-11-12T06:41:20;100496.58;;;1.21;79.17
34235;BME280;20500;49.856;20.290;2022-11-12T06:44:24;100495.86;;;1.28;79.30
34235;BME280;20500;49.856;20.290;2022-11-12T06:47:31;100497.73;;;1.32;79.16
34235;BME280;20500;49.856;20.290;2022-11-12T06:50:35;100499.97;;;1.31;79.00
34235;BME280;20500;49.856;20.290;2022-11-12T06:53:42;100498.45;;;1.27;79.25
34235;BME280;20500;49.856;20.290;2022-11-12T06:56:48;100500.53;;;1.24;79.13
34235;BME280;20500;49.856;20.290;2022-11-12T06:59:55;100502.63;;;1.25;79.24
34235;BME280;20500;49.856;20.290;2022-11-12T07:03:01;100506.66;;;1.27;79.30
34235;BME280;20500;49.856;20.290;2022-11-12T07:06:11;100501.17;;;1.28;79.37
34235;BME280;20500;49.856;20.290;2022-11-12T07:09:18;100499.74;;;1.32;79.27
34235;BME280;20500;49.856;20.290;2022-11-12T07:12:25;100493.28;;;1.35;79.50
34235;BME280;20500;49.856;20.290;2022-11-12T07:15:29;100493.23;;;1.39;79.56
34235;BME280;20500;49.856;20.290;2022-11-12T07:18:36;100494.30;;;1.42;79.52
34235;BME280;20500;49.856;20.290;2022-11-12T07:21:42;100497.13;;;1.46;79.47
34235;BME280;20500;49.856;20.290;2022-11-12T07:24:48;100497.92;;;1.51;79.55
34235;BME280;20500;49.856;20.290;2022-11-12T07:27:53;100494.66;;;1.55;79.71
34235;BME280;20500;49.856;20.290;2022-11-12T07:31:02;100496.70;;;1.59;79.68
34235;BME280;20500;49.856;20.290;2022-11-12T07:34:08;100494.52;;;1.66;79.84
34235;BME280;20500;49.856;20.290;2022-11-12T07:37:13;100491.02;;;1.74;80.02
34235;BME280;20500;49.856;20.290;2022-11-12T07:40:19;100487.85;;;1.79;79.86
34235;BME280;20500;49.856;20.290;2022-11-12T07:43:26;100484.83;;;1.85;80.16
34235;BME280;20500;49.856;20.290;2022-11-12T07:46:30;100483.34;;;1.91;80.37
34235;BME280;20500;49.856;20.290;2022-11-12T07:49:37;100481.05;;;2.00;80.50
34235;BME280;20500;49.856;20.290;2022-11-12T07:52:41;100477.95;;;2.09;80.63
34235;BME280;20500;49.856;20.290;2022-11-12T07:55:55;100475.26;;;2.18;80.77
34235;BME280;20500;49.856;20.290;2022-11-12T07:59:02;100482.38;;;2.28;80.79
34235;BME280;20500;49.856;20.290;2022-11-12T08:02:10;100486.17;;;2.38;80.74
34235;BME280;20500;49.856;20.290;2022-11-12T08:05:17;100489.33;;;2.48;80.89
34235;BME280;20500;49.856;20.290;2022-11-12T08:08:25;100488.98;;;2.57;81.05
34235;BME280;20500;49.856;20.290;2022-11-12T08:11:32;100485.33;;;2.67;81.09
34235;BME280;20500;49.856;20.290;2022-11-12T08:14:38;100488.68;;;2.76;81.18
34235;BME280;20500;49.856;20.290;2022-11-12T08:17:43;100493.74;;;2.86;81.41
34235;BME280;20500;49.856;20.290;2022-11-12T08:20:49;100496.35;;;2.96;81.38
34235;BME280;20500;49.856;20.290;2022-11-12T08:23:54;100496.22;;;3.06;81.59
34235;BME280;20500;49.856;20.290;2022-11-12T08:27:00;100496.51;;;3.16;81.75
34235;BME280;20500;49.856;20.290;2022-11-12T08:30:09;100487.64;;;3.25;81.68
34235;BME280;20500;49.856;20.290;2022-11-12T08:33:15;100487.86;;;3.35;81.68
34235;BME280;20500;49.856;20.290;2022-11-12T08:36:20;100492.25;;;3.48;81.96
34235;BME280;20500;49.856;20.290;2022-11-12T08:39:26;100492.23;;;3.61;82.31
34235;BME280;20500;49.856;20.290;2022-11-12T08:42:31;100494.63;;;3.74;82.32
34235;BME280;20500;49.856;20.290;2022-11-12T08:45:39;100495.65;;;3.85;82.40
34235;BME280;20500;49.856;20.290;2022-11-12T08:48:45;100491.88;;;3.98;82.65
34235;BME280;20500;49.856;20.290;2022-11-12T08:51:52;100498.27;;;4.13;82.90
34235;BME280;20500;49.856;20.290;2022-11-12T08:54:58;100502.73;;;4.28;82.88
34235;BME280;20500;49.856;20.290;2022-11-12T08:58:03;100501.91;;;4.48;83.09
34235;BME280;20500;49.856;20.290;2022-11-12T09:01:09;100500.58;;;4.74;83.33
34235;BME280;20500;49.856;20.290;2022-11-12T09:04:14;100498.96;;;5.06;83.45
34235;BME280;20500;49.856;20.290;2022-11-12T09:07:20;100496.35;;;5.39;83.56
34235;BME280;20500;49.856;20.290;2022-11-12T09:10:47;100501.46;;;5.74;83.18
34235;BME280;20500;49.856;20.290;2022-11-12T09:13:54;100500.58;;;5.98;83.01
34235;BME280;20500;49.856;20.290;2022-11-12T09:17:01;100499.16;;;6.14;82.90
34235;BME280;20500;49.856;20.290;2022-11-12T09:20:06;100496.77;;;6.33;83.02
34235;BME280;20500;49.856;20.290;2022-11-12T09:23:13;100499.51;;;6.53;83.02
34235;BME280;20500;49.856;20.290;2022-11-12T09:26:21;100499.41;;;6.77;82.88
34235;BME280;20500;49.856;20.290;2022-11-12T09:29:26;100495.40;;;6.96;82.76
34235;BME280;20500;49.856;20.290;2022-11-12T09:32:32;100488.38;;;7.11;82.83
34235;BME280;20500;49.856;20.290;2022-11-12T09:35:39;100485.46;;;7.22;82.64
34235;BME280;20500;49.856;20.290;2022-11-12T09:38:45;100484.14;;;7.39;82.70
34235;BME280;20500;49.856;20.290;2022-11-12T09:41:50;100490.30;;;7.53;82.45
34235;BME280;20500;49.856;20.290;2022-11-12T09:45:05;100492.42;;;7.65;82.51
34235;BME280;20500;49.856;20.290;2022-11-12T09:48:17;100486.72;;;7.79;82.51
34235;BME280;20500;49.856;20.290;2022-11-12T09:51:29;100490.34;;;7.92;82.37
34235;BME280;20500;49.856;20.290;2022-11-12T09:54:37;100495.34;;;8.03;82.39
34235;BME280;20500;49.856;20.290;2022-11-12T09:57:44;100496.80;;;8.15;82.35
34235;BME280;20500;49.856;20.290;2022-11-12T10:00:55;100496.40;;;8.24;82.19
34235;BME280;20500;49.856;20.290;2022-11-12T10:04:12;100495.31;;;8.32;82.33
34235;BME280;20500;49.856;20.290;2022-11-12T10:07:30;100491.58;;;8.42;82.24
34235;BME280;20500;49.856;20.290;2022-11-12T10:10:45;100492.20;;;8.54;82.12
34235;BME280;20500;49.856;20.290;2022-11-12T10:14:03;100491.73;;;8.66;81.95
34235;BME280;20500;49.856;20.290;2022-11-12T10:17:21;100489.58;;;8.78;81.95
34235;BME280;20500;49.856;20.290;2022-11-12T10:20:36;100492.39;;;8.93;81.85
34235;BME280;20500;49.856;20.290;2022-11-12T10:23:51;100484.95;;;9.05;81.74
34235;BME280;20500;49.856;20.290;2022-11-12T10:26:57;100484.06;;;9.13;81.58
34235;BME280;20500;49.856;20.290;2022-11-12T10:30:08;100476.39;;;9.24;81.59
34235;BME280;20500;49.856;20.290;2022-11-12T10:33:18;100471.13;;;9.36;81.45
34235;BME280;20500;49.856;20.290;2022-11-12T10:36:27;100469.52;;;9.45;81.29
34235;BME280;20500;49.856;20.290;2022-11-12T10:39:39;100469.25;;;9.56;81.58
34235;BME280;20500;49.856;20.290;2022-11-12T10:42:58;100468.42;;;9.71;81.37
34235;BME280;20500;49.856;20.290;2022-11-12T10:46:18;100466.75;;;9.82;81.12
34235;BME280;20500;49.856;20.290;2022-11-12T10:49:25;100467.91;;;9.90;80.88
34235;BME280;20500;49.856;20.290;2022-11-12T10:52:31;100469.45;;;9.99;80.85
34235;BME280;20500;49.856;20.290;2022-11-12T10:55:38;100462.80;;;10.08;80.81
34235;BME280;20500;49.856;20.290;2022-11-12T10:59:15;100458.74;;;10.22;80.81
34235;BME280;20500;49.856;20.290;2022-11-12T11:02:20;100457.84;;;10.38;80.59
34235;BME280;20500;49.856;20.290;2022-11-12T11:05:33;100453.54;;;10.50;80.43
34235;BME280;20500;49.856;20.290;2022-11-12T11:08:42;100451.14;;;10.64;80.41
34235;BME280;20500;49.856;20.290;2022-11-12T11:11:51;100449.02;;;10.78;80.29
34235;BME280;20500;49.856;20.290;2022-11-12T11:15:17;100447.76;;;10.93;80.20
34235;BME280;20500;49.856;20.290;2022-11-12T11:18:23;100443.42;;;11.07;79.99
34235;BME280;20500;49.856;20.290;2022-11-12T11:21:55;100437.80;;;11.20;79.76
34235;BME280;20500;49.856;20.290;2022-11-12T11:25:16;100433.16;;;11.32;79.62
34235;BME280;20500;49.856;20.290;2022-11-12T11:28:29;100431.92;;;11.44;79.52
34235;BME280;20500;49.856;20.290;2022-11-12T11:31:41;100428.67;;;11.56;79.41
34235;BME280;20500;49.856;20.290;2022-11-12T11:34:56;100424.96;;;11.68;79.28
34235;BME280;20500;49.856;20.290;2022-11-12T11:38:19;100426.58;;;11.79;79.01
34235;BME280;20500;49.856;20.290;2022-11-12T11:41:39;100425.48;;;11.90;78.94
34235;BME280;20500;49.856;20.290;2022-11-12T11:44:55;100425.27;;;12.01;78.64
34235;BME280;20500;49.856;20.290;2022-11-12T11:48:10;100423.88;;;12.10;78.46
34235;BME280;20500;49.856;20.290;2022-11-12T11:51:30;100423.23;;;12.20;78.43
34235;BME280;20500;49.856;20.290;2022-11-12T11:54:57;100419.95;;;12.31;78.44
34235;BME280;20500;49.856;20.290;2022-11-12T11:58:14;100415.61;;;12.41;78.15
34235;BME280;20500;49.856;20.290;2022-11-12T12:01:28;100413.98;;;12.52;77.92
34235;BME280;20500;49.856;20.290;2022-11-12T12:04:48;100411.85;;;12.61;77.75
34235;BME280;20500;49.856;20.290;2022-11-12T12:08:00;100409.23;;;12.70;77.76
34235;BME280;20500;49.856;20.290;2022-11-12T12:11:13;100407.36;;;12.79;77.50
34235;BME280;20500;49.856;20.290;2022-11-12T12:14:35;100404.42;;;12.88;77.52
34235;BME280;20500;49.856;20.290;2022-11-12T12:17:53;100400.33;;;12.96;77.36
34235;BME280;20500;49.856;20.290;2022-11-12T12:21:11;100394.63;;;13.03;77.34
34235;BME280;20500;49.856;20.290;2022-11-12T12:24:22;100396.25;;;13.10;77.02
34235;BME280;20500;49.856;20.290;2022-11-12T12:27:31;100393.59;;;13.16;76.83
34235;BME280;20500;49.856;20.290;2022-11-12T12:30:41;100394.16;;;13.21;76.83
34235;BME280;20500;49.856;20.290;2022-11-12T12:33:52;100397.20;;;13.26;76.63
34235;BME280;20500;49.856;20.290;2022-11-12T12:37:04;100395.21;;;13.31;76.22
34235;BME280;20500;49.856;20.290;2022-11-12T12:40:18;100390.05;;;13.35;76.16
34235;BME280;20500;49.856;20.290;2022-11-12T12:43:29;100388.04;;;13.40;76.09
34235;BME280;20500;49.856;20.290;2022-11-12T12:46:41;100389.48;;;13.45;75.91
34235;BME280;20500;49.856;20.290;2022-11-12T12:49:49;100390.00;;;13.49;75.68
34235;BME280;20500;49.856;20.290;2022-11-12T12:53:04;100391.14;;;13.52;75.36
34235;BME280;20500;49.856;20.290;2022-11-12T12:56:43;100387.55;;;13.53;75.12
34235;BME280;20500;49.856;20.290;2022-11-12T12:59:50;100384.38;;;13.55;75.18
34235;BME280;20500;49.856;20.290;2022-11-12T13:02:56;100386.25;;;13.56;75.09
34235;BME280;20500;49.856;20.290;2022-11-12T13:06:15;100388.83;;;13.56;74.92
34235;BME280;20500;49.856;20.290;2022-11-12T13:09:26;100387.69;;;13.53;74.63
34235;BME280;20500;49.856;20.290;2022-11-12T13:13:01;100391.55;;;13.50;74.34
34235;BME280;20500;49.856;20.290;2022-11-12T13:16:08;100394.67;;;13.46;74.31
34235;BME280;20500;49.856;20.290;2022-11-12T13:19:12;100393.17;;;13.42;74.24
34235;BME280;20500;49.856;20.290;2022-11-12T13:22:49;100391.96;;;13.37;73.79
34235;BME280;20500;49.856;20.290;2022-11-12T13:29:43;100391.06;;;13.31;73.69
34235;BME280;20500;49.856;20.290;2022-11-12T13:32:56;100393.90;;;13.28;73.66
34235;BME280;20500;49.856;20.290;2022-11-12T13:36:26;100389.81;;;13.24;73.54
34235;BME280;20500;49.856;20.290;2022-11-12T13:39:35;100393.26;;;13.19;73.43
34235;BME280;20500;49.856;20.290;2022-11-12T13:42:41;100394.63;;;13.15;73.24
34235;BME280;20500;49.856;20.290;2022-11-12T13:45:55;100394.48;;;13.09;73.10
34235;BME280;20500;49.856;20.290;2022-11-12T13:49:05;100390.23;;;13.04;73.05
34235;BME280;20500;49.856;20.290;2022-11-12T13:52:15;100391.08;;;12.99;73.00
34235;BME280;20500;49.856;20.290;2022-11-12T13:55:23;100396.42;;;12.93;72.97
34235;BME280;20500;49.856;20.290;2022-11-12T13:58:30;100396.95;;;12.88;72.83
34235;BME280;20500;49.856;20.290;2022-11-12T14:01:36;100396.39;;;12.85;72.60
34235;BME280;20500;49.856;20.290;2022-11-12T14:04:44;100395.67;;;12.80;72.44
34235;BME280;20500;49.856;20.290;2022-11-12T14:07:58;100392.86;;;12.74;72.41
34235;BME280;20500;49.856;20.290;2022-11-12T14:11:19;100390.95;;;12.68;72.47
34235;BME280;20500;49.856;20.290;2022-11-12T14:14:38;100390.05;;;12.61;72.16
34235;BME280;20500;49.856;20.290;2022-11-12T14:17:54;100391.05;;;12.53;72.19
34235;BME280;20500;49.856;20.290;2022-11-12T14:21:08;100393.80;;;12.46;72.24
34235;BME280;20500;49.856;20.290;2022-11-12T14:24:15;100395.05;;;12.39;71.95
34235;BME280;20500;49.856;20.290;2022-11-12T14:27:34;100393.99;;;12.32;72.03
34235;BME280;20500;49.856;20.290;2022-11-12T14:30:45;100393.05;;;12.24;71.86
34235;BME280;20500;49.856;20.290;2022-11-12T14:33:50;100389.09;;;12.14;71.69
34235;BME280;20500;49.856;20.290;2022-11-12T14:36:56;100389.12;;;12.04;71.59
34235;BME280;20500;49.856;20.290;2022-11-12T14:40:02;100387.94;;;11.92;71.47
34235;BME280;20500;49.856;20.290;2022-11-12T14:43:19;100385.59;;;11.80;71.29
34235;BME280;20500;49.856;20.290;2022-11-12T14:46:36;100382.60;;;11.66;71.32
34235;BME280;20500;49.856;20.290;2022-11-12T14:49:43;100381.11;;;11.56;71.29
34235;BME280;20500;49.856;20.290;2022-11-12T14:52:56;100378.40;;;11.46;71.21
34235;BME280;20500;49.856;20.290;2022-11-12T14:56:05;100377.36;;;11.37;71.22
34235;BME280;20500;49.856;20.290;2022-11-12T14:59:12;100381.45;;;11.29;71.20
34235;BME280;20500;49.856;20.290;2022-11-12T15:02:21;100379.67;;;11.21;71.20
34235;BME280;20500;49.856;20.290;2022-11-12T15:06:07;100378.48;;;11.06;71.15
34235;BME280;20500;49.856;20.290;2022-11-12T15:09:17;100381.41;;;10.88;71.22
34235;BME280;20500;49.856;20.290;2022-11-12T15:12:27;100383.66;;;10.76;71.30
34235;BME280;20500;49.856;20.290;2022-11-12T15:15:35;100384.29;;;10.66;71.34
34235;BME280;20500;49.856;20.290;2022-11-12T15:18:42;100383.56;;;10.55;71.20
34235;BME280;20500;49.856;20.290;2022-11-12T15:21:49;100385.45;;;10.43;71.20
34235;BME280;20500;49.856;20.290;2022-11-12T15:25:01;100386.11;;;10.33;71.40
34235;BME280;20500;49.856;20.290;2022-11-12T15:28:19;100389.09;;;10.20;71.32
34235;BME280;20500;49.856;20.290;2022-11-12T15:31:25;100393.26;;;10.03;70.96
34235;BME280;20500;49.856;20.290;2022-11-12T15:34:44;100395.98;;;9.86;71.06
34235;BME280;20500;49.856;20.290;2022-11-12T15:37:51;100395.39;;;9.71;71.21
34235;BME280;20500;49.856;20.290;2022-11-12T15:40:58;100401.30;;;9.58;71.31
34235;BME280;20500;49.856;20.290;2022-11-12T15:44:06;100403.34;;;9.44;71.10
34235;BME280;20500;49.856;20.290;2022-11-12T15:47:18;100408.01;;;9.29;71.15
34235;BME280;20500;49.856;20.290;2022-11-12T15:50:25;100410.02;;;9.11;71.08
34235;BME280;20500;49.856;20.290;2022-11-12T15:53:29;100411.85;;;8.95;71.29
34235;BME280;20500;49.856;20.290;2022-11-12T15:56:35;100417.52;;;8.80;71.42
34235;BME280;20500;49.856;20.290;2022-11-12T15:59:41;100419.98;;;8.69;71.65
34235;BME280;20500;49.856;20.290;2022-11-12T16:02:51;100428.59;;;8.57;71.56
34235;BME280;20500;49.856;20.290;2022-11-12T16:06:00;100430.52;;;8.44;71.43
34235;BME280;20500;49.856;20.290;2022-11-12T16:09:12;100434.47;;;8.33;71.42
34235;BME280;20500;49.856;20.290;2022-11-12T16:12:18;100438.62;;;8.21;71.43
34235;BME280;20500;49.856;20.290;2022-11-12T16:15:24;100442.23;;;8.09;71.53
34235;BME280;20500;49.856;20.290;2022-11-12T16:18:30;100447.26;;;7.99;71.48
34235;BME280;20500;49.856;20.290;2022-11-12T16:21:36;100443.77;;;7.91;71.65
34235;BME280;20500;49.856;20.290;2022-11-12T16:24:42;100440.60;;;7.86;71.80
34235;BME280;20500;49.856;20.290;2022-11-12T16:27:46;100442.05;;;7.77;71.66
34235;BME280;20500;49.856;20.290;2022-11-12T16:30:58;100446.86;;;7.63;71.59
34235;BME280;20500;49.856;20.290;2022-11-12T16:34:04;100446.99;;;7.51;71.78
34235;BME280;20500;49.856;20.290;2022-11-12T16:37:11;100443.80;;;7.44;71.75
34235;BME280;20500;49.856;20.290;2022-11-12T16:40:19;100442.87;;;7.38;71.74
34235;BME280;20500;49.856;20.290;2022-11-12T16:43:25;100440.85;;;7.29;71.66